sensor_id;sensor_type;location;lat;lon;timestamp;P1;durP1;ratioP1;P2;durP2;ratioP2
84297;SDS011;74466;51.188;3.242;2024-02-23T00:01:05;9.65;;;1.20;;
84297;SDS011;74466;51.188;3.242;2024-02-23T00:03:31;7.43;;;1.05;;
84297;SDS011;74466;51.188;3.242;2024-02-23T00:05:58;8.25;;;0.95;;
84297;SDS011;74466;51.188;3.242;2024-02-23T00:08:24;8.23;;;1.05;;
84297;SDS011;74466;51.188;3.242;2024-02-23T00:10:50;5.72;;;0.90;;
84297;SDS011;74466;51.188;3.242;2024-02-23T00:13:15;7.28;;;1.10;;
84297;SDS011;74466;51.188;3.242;2024-02-23T00:15:41;8.10;;;1.02;;
84297;SDS011;74466;51.188;3.242;2024-02-23T00:18:09;5.57;;;0.80;;
84297;SDS011;74466;51.188;3.242;2024-02-23T00:20:34;8.77;;;1.63;;
84297;SDS011;74466;51.188;3.242;2024-02-23T00:23:01;8.35;;;1.42;;
84297;SDS011;74466;51.188;3.242;2024-02-23T00:25:27;10.48;;;1.02;;
84297;SDS011;74466;51.188;3.242;2024-02-23T00:27:53;9.32;;;1.00;;
84297;SDS011;74466;51.188;3.242;2024-02-23T00:30:19;4.85;;;0.98;;
84297;SDS011;74466;51.188;3.242;2024-02-23T00:32:44;10.65;;;1.27;;
84297;SDS011;74466;51.188;3.242;2024-02-23T00:35:10;9.43;;;1.20;;
84297;SDS011;74466;51.188;3.242;2024-02-23T00:37:36;6.40;;;1.00;;
84297;SDS011;74466;51.188;3.242;2024-02-23T00:40:02;6.93;;;1.00;;
84297;SDS011;74466;51.188;3.242;2024-02-23T00:42:29;6.95;;;1.10;;
84297;SDS011;74466;51.188;3.242;2024-02-23T00:44:56;6.65;;;1.00;;
84297;SDS011;74466;51.188;3.242;2024-02-23T00:47:22;6.18;;;0.80;;
84297;SDS011;74466;51.188;3.242;2024-02-23T00:49:47;8.35;;;0.90;;
84297;SDS011;74466;51.188;3.242;2024-02-23T00:52:14;11.48;;;1.10;;
84297;SDS011;74466;51.188;3.242;2024-02-23T00:54:40;12.85;;;0.90;;
84297;SDS011;74466;51.188;3.242;2024-02-23T00:57:06;11.63;;;1.02;;
84297;SDS011;74466;51.188;3.242;2024-02-23T00:59:31;8.93;;;0.93;;
84297;SDS011;74466;51.188;3.242;2024-02-23T01:01:57;10.77;;;1.00;;
84297;SDS011;74466;51.188;3.242;2024-02-23T01:04:23;6.05;;;0.80;;
84297;SDS011;74466;51.188;3.242;2024-02-23T01:06:49;10.55;;;1.00;;
84297;SDS011;74466;51.188;3.242;2024-02-23T01:09:14;8.80;;;0.98;;
84297;SDS011;74466;51.188;3.242;2024-02-23T01:11:45;12.80;;;0.93;;
84297;SDS011;74466;51.188;3.242;2024-02-23T01:14:13;7.93;;;0.70;;
84297;SDS011;74466;51.188;3.242;2024-02-23T01:16:39;5.78;;;0.73;;
84297;SDS011;74466;51.188;3.242;2024-02-23T01:19:05;8.07;;;1.33;;
84297;SDS011;74466;51.188;3.242;2024-02-23T01:21:31;4.25;;;0.70;;
84297;SDS011;74466;51.188;3.242;2024-02-23T01:23:57;5.47;;;0.73;;
84297;SDS011;74466;51.188;3.242;2024-02-23T01:26:23;8.27;;;0.90;;
84297;SDS011;74466;51.188;3.242;2024-02-23T01:28:49;9.05;;;0.85;;
84297;SDS011;74466;51.188;3.242;2024-02-23T01:31:14;6.55;;;0.85;;
84297;SDS011;74466;51.188;3.242;2024-02-23T01:33:40;6.88;;;1.10;;
84297;SDS011;74466;51.188;3.242;2024-02-23T01:36:06;6.10;;;0.75;;
84297;SDS011;74466;51.188;3.242;2024-02-23T01:38:34;8.82;;;1.02;;
84297;SDS011;74466;51.188;3.242;2024-02-23T01:41:00;8.88;;;0.85;;
84297;SDS011;74466;51.188;3.242;2024-02-23T01:43:25;12.35;;;1.38;;
84297;SDS011;74466;51.188;3.242;2024-02-23T01:45:51;9.23;;;0.90;;
84297;SDS011;74466;51.188;3.242;2024-02-23T01:48:17;8.75;;;0.88;;
84297;SDS011;74466;51.188;3.242;2024-02-23T01:50:44;6.00;;;1.02;;
84297;SDS011;74466;51.188;3.242;2024-02-23T01:53:10;7.30;;;0.77;;
84297;SDS011;74466;51.188;3.242;2024-02-23T01:55:37;7.53;;;1.00;;
84297;SDS011;74466;51.188;3.242;2024-02-23T01:58:06;11.70;;;1.17;;
84297;SDS011;74466;51.188;3.242;2024-02-23T02:00:33;8.43;;;1.33;;
84297;SDS011;74466;51.188;3.242;2024-02-23T02:03:00;9.65;;;1.27;;
84297;SDS011;74466;51.188;3.242;2024-02-23T02:05:26;11.63;;;1.70;;
84297;SDS011;74466;51.188;3.242;2024-02-23T02:07:53;6.25;;;0.75;;
84297;SDS011;74466;51.188;3.242;2024-02-23T02:10:24;10.68;;;1.00;;
84297;SDS011;74466;51.188;3.242;2024-02-23T02:12:50;11.70;;;1.27;;
84297;SDS011;74466;51.188;3.242;2024-02-23T02:15:16;8.10;;;1.08;;
84297;SDS011;74466;51.188;3.242;2024-02-23T02:17:42;7.93;;;0.85;;
84297;SDS011;74466;51.188;3.242;2024-02-23T02:20:11;10.40;;;1.05;;
84297;SDS011;74466;51.188;3.242;2024-02-23T02:22:37;9.10;;;0.90;;
84297;SDS011;74466;51.188;3.242;2024-02-23T02:25:03;12.93;;;1.13;;
84297;SDS011;74466;51.188;3.242;2024-02-23T02:27:29;8.27;;;0.80;;
84297;SDS011;74466;51.188;3.242;2024-02-23T02:29:55;12.30;;;0.98;;
84297;SDS011;74466;51.188;3.242;2024-02-23T02:32:22;7.78;;;0.88;;
84297;SDS011;74466;51.188;3.242;2024-02-23T02:34:48;11.73;;;1.00;;
84297;SDS011;74466;51.188;3.242;2024-02-23T02:37:14;9.02;;;1.00;;
84297;SDS011;74466;51.188;3.242;2024-02-23T02:39:40;9.80;;;1.08;;
84297;SDS011;74466;51.188;3.242;2024-02-23T02:42:06;7.40;;;0.82;;
84297;SDS011;74466;51.188;3.242;2024-02-23T02:44:32;9.93;;;1.10;;
84297;SDS011;74466;51.188;3.242;2024-02-23T02:46:58;9.20;;;1.02;;
84297;SDS011;74466;51.188;3.242;2024-02-23T02:49:24;7.53;;;0.90;;
84297;SDS011;74466;51.188;3.242;2024-02-23T02:51:49;8.80;;;1.10;;
84297;SDS011;74466;51.188;3.242;2024-02-23T02:54:15;10.15;;;1.00;;
84297;SDS011;74466;51.188;3.242;2024-02-23T02:56:42;7.28;;;1.10;;
84297;SDS011;74466;51.188;3.242;2024-02-23T02:59:08;11.57;;;0.88;;
84297;SDS011;74466;51.188;3.242;2024-02-23T03:01:35;7.53;;;0.70;;
84297;SDS011;74466;51.188;3.242;2024-02-23T03:04:01;6.68;;;1.00;;
84297;SDS011;74466;51.188;3.242;2024-02-23T03:06:26;3.67;;;0.60;;
84297;SDS011;74466;51.188;3.242;2024-02-23T03:08:52;5.00;;;0.60;;
84297;SDS011;74466;51.188;3.242;2024-02-23T03:11:18;6.13;;;0.80;;
84297;SDS011;74466;51.188;3.242;2024-02-23T03:13:43;5.82;;;0.65;;
84297;SDS011;74466;51.188;3.242;2024-02-23T03:16:19;7.22;;;0.90;;
84297;SDS011;74466;51.188;3.242;2024-02-23T03:18:46;3.75;;;0.60;;
84297;SDS011;74466;51.188;3.242;2024-02-23T03:21:12;7.30;;;1.05;;
84297;SDS011;74466;51.188;3.242;2024-02-23T03:23:40;7.75;;;0.80;;
84297;SDS011;74466;51.188;3.242;2024-02-23T03:26:09;7.43;;;0.90;;
84297;SDS011;74466;51.188;3.242;2024-02-23T03:28:35;7.20;;;0.90;;
84297;SDS011;74466;51.188;3.242;2024-02-23T03:31:01;6.95;;;1.30;;
84297;SDS011;74466;51.188;3.242;2024-02-23T03:33:26;8.43;;;1.05;;
84297;SDS011;74466;51.188;3.242;2024-02-23T03:35:52;6.85;;;0.73;;
84297;SDS011;74466;51.188;3.242;2024-02-23T03:38:18;8.57;;;1.20;;
84297;SDS011;74466;51.188;3.242;2024-02-23T03:40:44;5.65;;;1.00;;
84297;SDS011;74466;51.188;3.242;2024-02-23T03:43:10;6.93;;;0.80;;
84297;SDS011;74466;51.188;3.242;2024-02-23T03:45:36;5.85;;;0.73;;
84297;SDS011;74466;51.188;3.242;2024-02-23T03:48:02;4.72;;;0.77;;
84297;SDS011;74466;51.188;3.242;2024-02-23T03:50:29;7.93;;;0.80;;
84297;SDS011;74466;51.188;3.242;2024-02-23T03:52:55;4.88;;;0.80;;
84297;SDS011;74466;51.188;3.242;2024-02-23T03:55:21;6.65;;;1.00;;
84297;SDS011;74466;51.188;3.242;2024-02-23T03:57:47;4.65;;;1.00;;
84297;SDS011;74466;51.188;3.242;2024-02-23T04:00:13;7.22;;;0.90;;
84297;SDS011;74466;51.188;3.242;2024-02-23T04:02:39;5.75;;;0.80;;
84297;SDS011;74466;51.188;3.242;2024-02-23T04:05:06;3.40;;;0.70;;
84297;SDS011;74466;51.188;3.242;2024-02-23T04:07:32;5.43;;;0.80;;
84297;SDS011;74466;51.188;3.242;2024-02-23T04:09:58;7.03;;;0.90;;
84297;SDS011;74466;51.188;3.242;2024-02-23T04:12:23;6.53;;;1.05;;
84297;SDS011;74466;51.188;3.242;2024-02-23T04:14:49;7.72;;;1.23;;
84297;SDS011;74466;51.188;3.242;2024-02-23T04:17:16;5.95;;;1.10;;
84297;SDS011;74466;51.188;3.242;2024-02-23T04:19:42;7.00;;;1.00;;
84297;SDS011;74466;51.188;3.242;2024-02-23T04:22:08;5.55;;;0.90;;
84297;SDS011;74466;51.188;3.242;2024-02-23T04:24:40;3.60;;;1.00;;
84297;SDS011;74466;51.188;3.242;2024-02-23T04:27:07;3.40;;;1.00;;
84297;SDS011;74466;51.188;3.242;2024-02-23T04:29:33;7.55;;;1.33;;
84297;SDS011;74466;51.188;3.242;2024-02-23T04:31:59;9.73;;;1.52;;
84297;SDS011;74466;51.188;3.242;2024-02-23T04:34:26;6.35;;;1.60;;
84297;SDS011;74466;51.188;3.242;2024-02-23T04:36:52;8.20;;;1.77;;
84297;SDS011;74466;51.188;3.242;2024-02-23T04:39:18;6.88;;;1.60;;
84297;SDS011;74466;51.188;3.242;2024-02-23T04:41:43;8.65;;;1.83;;
84297;SDS011;74466;51.188;3.242;2024-02-23T04:44:10;7.30;;;2.13;;
84297;SDS011;74466;51.188;3.242;2024-02-23T04:46:35;7.50;;;1.60;;
84297;SDS011;74466;51.188;3.242;2024-02-23T04:49:01;9.02;;;1.65;;
84297;SDS011;74466;51.188;3.242;2024-02-23T04:51:27;7.90;;;1.60;;
84297;SDS011;74466;51.188;3.242;2024-02-23T04:53:53;8.65;;;1.70;;
84297;SDS011;74466;51.188;3.242;2024-02-23T04:56:19;6.75;;;1.20;;
84297;SDS011;74466;51.188;3.242;2024-02-23T04:58:45;7.78;;;1.35;;
84297;SDS011;74466;51.188;3.242;2024-02-23T05:01:11;6.35;;;1.20;;
84297;SDS011;74466;51.188;3.242;2024-02-23T05:03:37;5.78;;;1.10;;
84297;SDS011;74466;51.188;3.242;2024-02-23T05:06:03;6.95;;;1.23;;
84297;SDS011;74466;51.188;3.242;2024-02-23T05:08:29;5.60;;;1.40;;
84297;SDS011;74466;51.188;3.242;2024-02-23T05:10:56;5.80;;;0.98;;
84297;SDS011;74466;51.188;3.242;2024-02-23T05:13:22;8.98;;;1.10;;
84297;SDS011;74466;51.188;3.242;2024-02-23T05:15:48;8.80;;;1.55;;
84297;SDS011;74466;51.188;3.242;2024-02-23T05:18:14;7.25;;;1.20;;
84297;SDS011;74466;51.188;3.242;2024-02-23T05:20:39;4.45;;;1.15;;
84297;SDS011;74466;51.188;3.242;2024-02-23T05:23:05;5.53;;;0.93;;
84297;SDS011;74466;51.188;3.242;2024-02-23T05:25:32;5.35;;;0.93;;
84297;SDS011;74466;51.188;3.242;2024-02-23T05:27:57;9.48;;;1.33;;
84297;SDS011;74466;51.188;3.242;2024-02-23T05:30:23;3.88;;;1.13;;
84297;SDS011;74466;51.188;3.242;2024-02-23T05:32:50;8.30;;;1.20;;
84297;SDS011;74466;51.188;3.242;2024-02-23T05:35:15;7.22;;;1.30;;
84297;SDS011;74466;51.188;3.242;2024-02-23T05:37:42;5.32;;;0.98;;
84297;SDS011;74466;51.188;3.242;2024-02-23T05:40:07;6.13;;;1.10;;
84297;SDS011;74466;51.188;3.242;2024-02-23T05:42:36;7.30;;;1.15;;
84297;SDS011;74466;51.188;3.242;2024-02-23T05:45:03;4.18;;;1.20;;
84297;SDS011;74466;51.188;3.242;2024-02-23T05:47:32;7.90;;;1.00;;
84297;SDS011;74466;51.188;3.242;2024-02-23T05:49:57;6.75;;;1.10;;
84297;SDS011;74466;51.188;3.242;2024-02-23T05:52:23;8.93;;;1.58;;
84297;SDS011;74466;51.188;3.242;2024-02-23T05:54:49;8.40;;;1.15;;
84297;SDS011;74466;51.188;3.242;2024-02-23T05:57:14;5.75;;;1.23;;
84297;SDS011;74466;51.188;3.242;2024-02-23T05:59:40;14.23;;;1.45;;
84297;SDS011;74466;51.188;3.242;2024-02-23T06:02:06;9.00;;;1.30;;
84297;SDS011;74466;51.188;3.242;2024-02-23T06:04:32;8.10;;;1.45;;
84297;SDS011;74466;51.188;3.242;2024-02-23T06:06:58;9.18;;;1.00;;
84297;SDS011;74466;51.188;3.242;2024-02-23T06:09:23;4.85;;;0.93;;
84297;SDS011;74466;51.188;3.242;2024-02-23T06:11:49;10.90;;;1.42;;
84297;SDS011;74466;51.188;3.242;2024-02-23T06:14:15;10.95;;;1.30;;
84297;SDS011;74466;51.188;3.242;2024-02-23T06:16:41;6.22;;;1.10;;
84297;SDS011;74466;51.188;3.242;2024-02-23T06:19:07;9.68;;;1.13;;
84297;SDS011;74466;51.188;3.242;2024-02-23T06:21:33;7.10;;;1.17;;
84297;SDS011;74466;51.188;3.242;2024-02-23T06:23:59;7.43;;;1.05;;
84297;SDS011;74466;51.188;3.242;2024-02-23T06:26:24;4.88;;;0.90;;
84297;SDS011;74466;51.188;3.242;2024-02-23T06:28:50;7.78;;;1.10;;
84297;SDS011;74466;51.188;3.242;2024-02-23T06:31:15;6.65;;;1.02;;
84297;SDS011;74466;51.188;3.242;2024-02-23T06:33:41;9.27;;;1.20;;
84297;SDS011;74466;51.188;3.242;2024-02-23T06:36:07;7.63;;;1.35;;
84297;SDS011;74466;51.188;3.242;2024-02-23T06:38:34;7.60;;;1.70;;
84297;SDS011;74466;51.188;3.242;2024-02-23T06:41:00;8.48;;;1.25;;
84297;SDS011;74466;51.188;3.242;2024-02-23T06:43:26;7.68;;;0.98;;
84297;SDS011;74466;51.188;3.242;2024-02-23T06:45:51;9.38;;;1.33;;
84297;SDS011;74466;51.188;3.242;2024-02-23T06:48:17;8.88;;;1.30;;
84297;SDS011;74466;51.188;3.242;2024-02-23T06:50:43;8.02;;;0.90;;
84297;SDS011;74466;51.188;3.242;2024-02-23T06:53:09;8.63;;;1.35;;
84297;SDS011;74466;51.188;3.242;2024-02-23T06:55:35;6.13;;;0.98;;
84297;SDS011;74466;51.188;3.242;2024-02-23T06:58:01;9.98;;;1.23;;
84297;SDS011;74466;51.188;3.242;2024-02-23T07:00:27;11.85;;;1.42;;
84297;SDS011;74466;51.188;3.242;2024-02-23T07:02:53;10.35;;;1.10;;
84297;SDS011;74466;51.188;3.242;2024-02-23T07:05:19;7.50;;;1.10;;
84297;SDS011;74466;51.188;3.242;2024-02-23T07:07:44;9.30;;;1.52;;
84297;SDS011;74466;51.188;3.242;2024-02-23T07:10:11;8.07;;;1.50;;
84297;SDS011;74466;51.188;3.242;2024-02-23T07:12:37;7.18;;;1.17;;
84297;SDS011;74466;51.188;3.242;2024-02-23T07:15:03;7.05;;;1.10;;
84297;SDS011;74466;51.188;3.242;2024-02-23T07:17:29;8.70;;;1.10;;
84297;SDS011;74466;51.188;3.242;2024-02-23T07:19:54;7.78;;;1.20;;
84297;SDS011;74466;51.188;3.242;2024-02-23T07:22:27;7.95;;;1.20;;
84297;SDS011;74466;51.188;3.242;2024-02-23T07:24:54;7.95;;;1.20;;
84297;SDS011;74466;51.188;3.242;2024-02-23T07:27:19;9.85;;;1.20;;
84297;SDS011;74466;51.188;3.242;2024-02-23T07:29:45;10.48;;;1.20;;
84297;SDS011;74466;51.188;3.242;2024-02-23T07:32:11;11.18;;;2.28;;
84297;SDS011;74466;51.188;3.242;2024-02-23T07:34:36;7.50;;;1.60;;
84297;SDS011;74466;51.188;3.242;2024-02-23T07:37:03;14.38;;;3.75;;
84297;SDS011;74466;51.188;3.242;2024-02-23T07:39:29;12.27;;;2.80;;
84297;SDS011;74466;51.188;3.242;2024-02-23T07:41:54;9.65;;;2.05;;
84297;SDS011;74466;51.188;3.242;2024-02-23T07:44:20;10.73;;;3.03;;
84297;SDS011;74466;51.188;3.242;2024-02-23T07:46:46;6.30;;;1.65;;
84297;SDS011;74466;51.188;3.242;2024-02-23T07:49:11;7.47;;;1.42;;
84297;SDS011;74466;51.188;3.242;2024-02-23T07:51:37;8.43;;;1.40;;
84297;SDS011;74466;51.188;3.242;2024-02-23T07:54:03;10.75;;;1.45;;
84297;SDS011;74466;51.188;3.242;2024-02-23T07:56:28;6.25;;;1.25;;
84297;SDS011;74466;51.188;3.242;2024-02-23T07:58:55;10.27;;;1.33;;
84297;SDS011;74466;51.188;3.242;2024-02-23T08:01:21;7.43;;;1.30;;
84297;SDS011;74466;51.188;3.242;2024-02-23T08:03:47;11.75;;;1.52;;
84297;SDS011;74466;51.188;3.242;2024-02-23T08:06:14;6.78;;;1.40;;
84297;SDS011;74466;51.188;3.242;2024-02-23T08:08:39;6.28;;;1.40;;
84297;SDS011;74466;51.188;3.242;2024-02-23T08:11:05;6.80;;;1.35;;
84297;SDS011;74466;51.188;3.242;2024-02-23T08:13:31;8.45;;;1.40;;
84297;SDS011;74466;51.188;3.242;2024-02-23T08:15:57;7.70;;;1.10;;
84297;SDS011;74466;51.188;3.242;2024-02-23T08:18:23;5.30;;;1.70;;
84297;SDS011;74466;51.188;3.242;2024-02-23T08:20:49;6.35;;;1.33;;
84297;SDS011;74466;51.188;3.242;2024-02-23T08:23:14;6.15;;;0.90;;
84297;SDS011;74466;51.188;3.242;2024-02-23T08:25:40;5.38;;;1.08;;
84297;SDS011;74466;51.188;3.242;2024-02-23T08:28:06;8.13;;;1.40;;
84297;SDS011;74466;51.188;3.242;2024-02-23T08:30:32;5.93;;;1.05;;
84297;SDS011;74466;51.188;3.242;2024-02-23T08:32:58;6.85;;;0.95;;
84297;SDS011;74466;51.188;3.242;2024-02-23T08:35:24;6.55;;;1.20;;
84297;SDS011;74466;51.188;3.242;2024-02-23T08:37:50;5.63;;;1.00;;
84297;SDS011;74466;51.188;3.242;2024-02-23T08:40:16;7.40;;;1.35;;
84297;SDS011;74466;51.188;3.242;2024-02-23T08:42:42;3.38;;;1.10;;
84297;SDS011;74466;51.188;3.242;2024-02-23T08:45:08;7.78;;;1.10;;
84297;SDS011;74466;51.188;3.242;2024-02-23T08:47:38;4.70;;;1.00;;
84297;SDS011;74466;51.188;3.242;2024-02-23T08:50:05;7.20;;;1.08;;
84297;SDS011;74466;51.188;3.242;2024-02-23T08:52:31;8.63;;;1.20;;
84297;SDS011;74466;51.188;3.242;2024-02-23T08:54:57;5.15;;;0.85;;
84297;SDS011;74466;51.188;3.242;2024-02-23T08:57:25;5.03;;;0.95;;
84297;SDS011;74466;51.188;3.242;2024-02-23T08:59:52;8.38;;;1.20;;
84297;SDS011;74466;51.188;3.242;2024-02-23T09:02:18;5.07;;;0.90;;
84297;SDS011;74466;51.188;3.242;2024-02-23T09:04:44;5.88;;;0.90;;
84297;SDS011;74466;51.188;3.242;2024-02-23T09:07:10;8.25;;;1.05;;
84297;SDS011;74466;51.188;3.242;2024-02-23T09:09:37;4.97;;;1.10;;
84297;SDS011;74466;51.188;3.242;2024-02-23T09:12:02;5.47;;;0.80;;
84297;SDS011;74466;51.188;3.242;2024-02-23T09:14:28;4.55;;;0.93;;
84297;SDS011;74466;51.188;3.242;2024-02-23T09:16:54;6.70;;;1.02;;
84297;SDS011;74466;51.188;3.242;2024-02-23T09:19:20;5.80;;;1.00;;
84297;SDS011;74466;51.188;3.242;2024-02-23T09:21:46;4.50;;;0.80;;
84297;SDS011;74466;51.188;3.242;2024-02-23T09:24:13;2.55;;;0.68;;
84297;SDS011;74466;51.188;3.242;2024-02-23T09:26:39;5.32;;;1.00;;
84297;SDS011;74466;51.188;3.242;2024-02-23T09:29:05;6.15;;;0.88;;
84297;SDS011;74466;51.188;3.242;2024-02-23T09:31:31;3.33;;;0.80;;
84297;SDS011;74466;51.188;3.242;2024-02-23T09:33:57;6.80;;;0.70;;
84297;SDS011;74466;51.188;3.242;2024-02-23T09:36:24;5.63;;;0.70;;
84297;SDS011;74466;51.188;3.242;2024-02-23T09:38:50;3.78;;;0.70;;
84297;SDS011;74466;51.188;3.242;2024-02-23T09:41:19;4.75;;;0.73;;
84297;SDS011;74466;51.188;3.242;2024-02-23T09:43:46;4.30;;;0.95;;
84297;SDS011;74466;51.188;3.242;2024-02-23T09:46:14;3.45;;;0.70;;
84297;SDS011;74466;51.188;3.242;2024-02-23T09:48:41;2.83;;;0.85;;
84297;SDS011;74466;51.188;3.242;2024-02-23T09:51:14;5.70;;;1.00;;
84297;SDS011;74466;51.188;3.242;2024-02-23T09:53:41;6.72;;;0.80;;
84297;SDS011;74466;51.188;3.242;2024-02-23T09:56:08;3.95;;;0.60;;
84297;SDS011;74466;51.188;3.242;2024-02-23T09:58:34;5.57;;;0.88;;
84297;SDS011;74466;51.188;3.242;2024-02-23T10:01:02;4.45;;;0.90;;
84297;SDS011;74466;51.188;3.242;2024-02-23T10:03:28;6.68;;;1.02;;
84297;SDS011;74466;51.188;3.242;2024-02-23T10:05:58;4.53;;;0.80;;
84297;SDS011;74466;51.188;3.242;2024-02-23T10:08:26;8.80;;;1.05;;
84297;SDS011;74466;51.188;3.242;2024-02-23T10:10:52;6.35;;;1.25;;
84297;SDS011;74466;51.188;3.242;2024-02-23T10:13:20;7.60;;;1.00;;
84297;SDS011;74466;51.188;3.242;2024-02-23T10:15:52;5.38;;;1.55;;
84297;SDS011;74466;51.188;3.242;2024-02-23T10:18:19;6.32;;;1.20;;
84297;SDS011;74466;51.188;3.242;2024-02-23T10:20:45;6.80;;;1.33;;
84297;SDS011;74466;51.188;3.242;2024-02-23T10:23:12;6.50;;;1.60;;
84297;SDS011;74466;51.188;3.242;2024-02-23T10:25:38;7.47;;;1.48;;
84297;SDS011;74466;51.188;3.242;2024-02-23T10:28:05;5.38;;;1.60;;
84297;SDS011;74466;51.188;3.242;2024-02-23T10:30:31;5.22;;;1.13;;
84297;SDS011;74466;51.188;3.242;2024-02-23T10:32:58;6.22;;;1.15;;
84297;SDS011;74466;51.188;3.242;2024-02-23T10:35:25;8.75;;;1.45;;
84297;SDS011;74466;51.188;3.242;2024-02-23T10:37:52;4.93;;;1.30;;
84297;SDS011;74466;51.188;3.242;2024-02-23T10:40:20;5.55;;;0.80;;
84297;SDS011;74466;51.188;3.242;2024-02-23T10:42:48;6.63;;;1.20;;
84297;SDS011;74466;51.188;3.242;2024-02-23T10:45:20;6.40;;;1.63;;
84297;SDS011;74466;51.188;3.242;2024-02-23T10:47:50;3.92;;;0.88;;
84297;SDS011;74466;51.188;3.242;2024-02-23T10:50:16;5.95;;;1.40;;
84297;SDS011;74466;51.188;3.242;2024-02-23T10:52:44;4.32;;;1.02;;
84297;SDS011;74466;51.188;3.242;2024-02-23T10:55:11;5.10;;;0.95;;
84297;SDS011;74466;51.188;3.242;2024-02-23T10:57:40;7.65;;;1.63;;
84297;SDS011;74466;51.188;3.242;2024-02-23T11:00:07;3.92;;;1.13;;
84297;SDS011;74466;51.188;3.242;2024-02-23T11:02:49;3.03;;;0.73;;
84297;SDS011;74466;51.188;3.242;2024-02-23T11:05:17;2.20;;;0.50;;
84297;SDS011;74466;51.188;3.242;2024-02-23T11:07:47;4.05;;;0.70;;
84297;SDS011;74466;51.188;3.242;2024-02-23T11:10:17;2.88;;;0.70;;
84297;SDS011;74466;51.188;3.242;2024-02-23T11:12:43;4.10;;;1.60;;
84297;SDS011;74466;51.188;3.242;2024-02-23T11:15:09;4.22;;;1.10;;
84297;SDS011;74466;51.188;3.242;2024-02-23T11:17:50;3.60;;;1.10;;
84297;SDS011;74466;51.188;3.242;2024-02-23T11:20:16;2.58;;;0.70;;
84297;SDS011;74466;51.188;3.242;2024-02-23T11:22:42;1.58;;;0.50;;
84297;SDS011;74466;51.188;3.242;2024-02-23T11:25:08;1.20;;;0.50;;
84297;SDS011;74466;51.188;3.242;2024-02-23T11:27:35;2.58;;;0.40;;
84297;SDS011;74466;51.188;3.242;2024-02-23T11:30:03;1.58;;;0.32;;
84297;SDS011;74466;51.188;3.242;2024-02-23T11:35:07;2.15;;;0.50;;
84297;SDS011;74466;51.188;3.242;2024-02-23T11:37:47;2.58;;;0.40;;
84297;SDS011;74466;51.188;3.242;2024-02-23T11:40:24;1.15;;;0.40;;
84297;SDS011;74466;51.188;3.242;2024-02-23T11:42:51;3.15;;;0.50;;
84297;SDS011;74466;51.188;3.242;2024-02-23T11:45:17;4.60;;;0.57;;
84297;SDS011;74466;51.188;3.242;2024-02-23T11:47:43;2.33;;;0.75;;
84297;SDS011;74466;51.188;3.242;2024-02-23T11:50:09;3.00;;;0.50;;
84297;SDS011;74466;51.188;3.242;2024-02-23T11:52:38;3.22;;;0.57;;
84297;SDS011;74466;51.188;3.242;2024-02-23T11:55:04;2.35;;;0.60;;
84297;SDS011;74466;51.188;3.242;2024-02-23T11:57:34;2.55;;;0.50;;
84297;SDS011;74466;51.188;3.242;2024-02-23T12:00:03;3.63;;;1.30;;
84297;SDS011;74466;51.188;3.242;2024-02-23T12:02:31;4.53;;;1.35;;
84297;SDS011;74466;51.188;3.242;2024-02-23T12:05:01;2.80;;;1.30;;
84297;SDS011;74466;51.188;3.242;2024-02-23T12:07:28;4.65;;;1.50;;
84297;SDS011;74466;51.188;3.242;2024-02-23T12:09:56;2.60;;;1.05;;
84297;SDS011;74466;51.188;3.242;2024-02-23T12:12:22;4.30;;;1.17;;
84297;SDS011;74466;51.188;3.242;2024-02-23T12:14:49;3.17;;;0.95;;
84297;SDS011;74466;51.188;3.242;2024-02-23T12:17:15;3.78;;;0.93;;
84297;SDS011;74466;51.188;3.242;2024-02-23T12:19:41;2.65;;;1.00;;
84297;SDS011;74466;51.188;3.242;2024-02-23T12:22:07;3.78;;;1.10;;
84297;SDS011;74466;51.188;3.242;2024-02-23T12:24:34;4.82;;;1.30;;
84297;SDS011;74466;51.188;3.242;2024-02-23T12:26:59;6.93;;;2.47;;
84297;SDS011;74466;51.188;3.242;2024-02-23T12:29:25;3.85;;;1.10;;
84297;SDS011;74466;51.188;3.242;2024-02-23T12:32:02;4.63;;;1.00;;
84297;SDS011;74466;51.188;3.242;2024-02-23T12:34:31;4.93;;;1.52;;
84297;SDS011;74466;51.188;3.242;2024-02-23T12:36:57;5.97;;;1.77;;
84297;SDS011;74466;51.188;3.242;2024-02-23T12:39:23;5.68;;;1.75;;
84297;SDS011;74466;51.188;3.242;2024-02-23T12:41:49;6.40;;;2.10;;
84297;SDS011;74466;51.188;3.242;2024-02-23T12:44:16;4.03;;;1.75;;
84297;SDS011;74466;51.188;3.242;2024-02-23T12:46:42;4.47;;;1.58;;
84297;SDS011;74466;51.188;3.242;2024-02-23T12:49:07;5.55;;;1.42;;
84297;SDS011;74466;51.188;3.242;2024-02-23T12:51:34;6.22;;;1.33;;
84297;SDS011;74466;51.188;3.242;2024-02-23T12:54:00;6.28;;;1.50;;
84297;SDS011;74466;51.188;3.242;2024-02-23T12:56:26;7.03;;;1.38;;
84297;SDS011;74466;51.188;3.242;2024-02-23T12:58:52;6.78;;;1.27;;
84297;SDS011;74466;51.188;3.242;2024-02-23T13:01:19;6.10;;;1.48;;
84297;SDS011;74466;51.188;3.242;2024-02-23T13:03:45;5.55;;;1.42;;
84297;SDS011;74466;51.188;3.242;2024-02-23T13:06:10;5.68;;;1.65;;
84297;SDS011;74466;51.188;3.242;2024-02-23T13:08:38;5.53;;;1.70;;
84297;SDS011;74466;51.188;3.242;2024-02-23T13:11:05;7.60;;;1.38;;
84297;SDS011;74466;51.188;3.242;2024-02-23T13:13:31;6.72;;;1.67;;
84297;SDS011;74466;51.188;3.242;2024-02-23T13:15:58;6.68;;;1.80;;
84297;SDS011;74466;51.188;3.242;2024-02-23T13:18:23;5.30;;;1.65;;
84297;SDS011;74466;51.188;3.242;2024-02-23T13:20:49;6.80;;;1.67;;
84297;SDS011;74466;51.188;3.242;2024-02-23T13:23:15;7.28;;;1.70;;
84297;SDS011;74466;51.188;3.242;2024-02-23T13:25:41;4.93;;;1.50;;
84297;SDS011;74466;51.188;3.242;2024-02-23T13:28:07;7.53;;;1.67;;
84297;SDS011;74466;51.188;3.242;2024-02-23T13:30:34;6.03;;;1.50;;
84297;SDS011;74466;51.188;3.242;2024-02-23T13:33:00;4.85;;;1.27;;
84297;SDS011;74466;51.188;3.242;2024-02-23T13:35:26;3.95;;;1.00;;
84297;SDS011;74466;51.188;3.242;2024-02-23T13:37:53;6.35;;;0.90;;
84297;SDS011;74466;51.188;3.242;2024-02-23T13:40:19;3.60;;;0.70;;
84297;SDS011;74466;51.188;3.242;2024-02-23T13:42:45;1.20;;;0.50;;
84297;SDS011;74466;51.188;3.242;2024-02-23T13:45:14;2.45;;;0.50;;
84297;SDS011;74466;51.188;3.242;2024-02-23T13:47:41;3.22;;;0.50;;
84297;SDS011;74466;51.188;3.242;2024-02-23T13:50:08;3.53;;;0.63;;
84297;SDS011;74466;51.188;3.242;2024-02-23T13:52:34;3.42;;;0.70;;
84297;SDS011;74466;51.188;3.242;2024-02-23T13:55:00;2.55;;;0.50;;
84297;SDS011;74466;51.188;3.242;2024-02-23T13:57:26;2.30;;;0.55;;
84297;SDS011;74466;51.188;3.242;2024-02-23T13:59:51;1.38;;;0.50;;
84297;SDS011;74466;51.188;3.242;2024-02-23T14:02:23;2.80;;;0.80;;
84297;SDS011;74466;51.188;3.242;2024-02-23T14:04:50;4.40;;;0.90;;
84297;SDS011;74466;51.188;3.242;2024-02-23T14:07:16;5.55;;;1.02;;
84297;SDS011;74466;51.188;3.242;2024-02-23T14:09:43;5.47;;;1.00;;
84297;SDS011;74466;51.188;3.242;2024-02-23T14:12:08;4.50;;;0.90;;
84297;SDS011;74466;51.188;3.242;2024-02-23T14:14:34;7.13;;;1.40;;
84297;SDS011;74466;51.188;3.242;2024-02-23T14:17:00;4.47;;;1.17;;
84297;SDS011;74466;51.188;3.242;2024-02-23T14:19:26;2.78;;;1.10;;
84297;SDS011;74466;51.188;3.242;2024-02-23T14:21:52;2.85;;;1.13;;
84297;SDS011;74466;51.188;3.242;2024-02-23T14:24:18;4.75;;;1.30;;
84297;SDS011;74466;51.188;3.242;2024-02-23T14:26:43;3.78;;;1.23;;
84297;SDS011;74466;51.188;3.242;2024-02-23T14:29:09;4.25;;;1.30;;
84297;SDS011;74466;51.188;3.242;2024-02-23T14:31:35;3.78;;;0.82;;
84297;SDS011;74466;51.188;3.242;2024-02-23T14:34:00;2.38;;;0.50;;
84297;SDS011;74466;51.188;3.242;2024-02-23T14:36:26;3.03;;;0.60;;
84297;SDS011;74466;51.188;3.242;2024-02-23T14:38:52;3.25;;;0.70;;
84297;SDS011;74466;51.188;3.242;2024-02-23T14:41:18;2.67;;;0.60;;
84297;SDS011;74466;51.188;3.242;2024-02-23T14:43:43;2.45;;;0.73;;